YBWX

Details ICAO YBWX (BWB)
Name Barrow Island
Region Australia
Timezone Australia/Perth (UTC+8.0)
Plans Departing 16
Arriving 9
Stats Elevation 26 ft / 8 m (AMSL)
Location -20.861316° 115.406649°
Runways 1
Magnetic Variation 0.730° E
Sunrise 2017-12-12 21:32:25 UTC / 2017-12-13 05:32:25 Local
Sunset 2017-12-13 10:55:16 UTC / 2017-12-13 18:55:16 Local
Advertisement - Login to hide

Runways

ID Width Length Bearing (true) Bearing (mag) Surface Threshold Offset Overrun Length
03 98 ft / 30 m 6,250 ft / 1,905 m 26.48° 25.75° Asphalt 0 ft / 0 m 0 ft / 0 m
21 98 ft / 30 m 6,250 ft / 1,905 m 206.48° 205.75° Asphalt 0 ft / 0 m 0 ft / 0 m

Map

Weather


0- 5 10 15 20 25 30 35+ Temperature / ° C

Clouds and Precipitation
Forecast for 2017-12-13 12:00 UTC. Updated 2 hours ago

Ground ~20,000 ft ~40,000 ft Winds

METAR

YBWX 131300Z AUTO 25015KT //// // ////// 26/22 Q1008

TAF

Not found

Frequencies

Unicom 120.10 MHz CTAF
Warning: Do not use this data for real-world aviation or navigation. No guarantee of current accuracy is given.